createdAt,value
2022-08-07T00:01:43.345Z,96830.59
2022-08-07T00:06:29.594Z,96830.50
2022-08-07T00:11:47.985Z,96825.78
2022-08-07T00:16:58.257Z,96839.25
2022-08-07T00:22:01.984Z,96838.63
2022-08-07T00:27:09.221Z,96842.66
2022-08-07T00:32:14.613Z,96837.06
2022-08-07T00:37:18.834Z,96820.03
2022-08-07T00:42:29.177Z,96830.00
2022-08-07T00:48:18.259Z,96825.03
2022-08-07T00:52:56.735Z,96824.22
2022-08-07T00:57:59.441Z,96815.72
2022-08-07T01:03:03.458Z,96821.28
2022-08-07T01:08:09.009Z,96829.00
2022-08-07T01:13:12.093Z,96817.50
2022-08-07T01:18:19.638Z,96812.25
2022-08-07T01:23:34.646Z,96812.66
2022-08-07T01:28:45.930Z,96812.13
2022-08-07T01:33:55.995Z,96812.19
2022-08-07T01:39:00.506Z,96797.13
2022-08-07T01:44:04.865Z,96812.25
2022-08-07T01:49:08.240Z,96802.00
2022-08-07T01:54:33.018Z,96804.03
2022-08-07T01:59:58.597Z,96792.75
2022-08-07T02:05:04.949Z,96786.84
2022-08-07T02:10:09.479Z,96788.69
2022-08-07T02:15:23.612Z,96790.28
2022-08-07T02:20:31.114Z,96787.22
2022-08-07T02:26:31.973Z,96784.44
2022-08-07T02:31:10.373Z,96784.59
2022-08-07T02:36:29.163Z,96778.50
2022-08-07T02:41:37.147Z,96760.03
2022-08-07T02:46:46.799Z,96761.78
2022-08-07T02:51:58.523Z,96761.50
2022-08-07T02:57:02.749Z,96760.19
2022-08-07T03:02:10.416Z,96768.78
2022-08-07T03:07:15.274Z,96772.25
2022-08-07T03:12:22.586Z,96770.81
2022-08-07T03:17:36.402Z,96768.50
2022-08-07T03:22:58.596Z,96764.59
2022-08-07T03:28:36.889Z,96761.06
2022-08-07T03:33:32.114Z,96766.69
2022-08-07T03:38:44.140Z,96780.19
2022-08-07T03:43:57.163Z,96774.88
2022-08-07T03:49:02.784Z,96772.53
2022-08-07T03:54:36.096Z,96767.69
2022-08-07T03:59:33.143Z,96759.78
2022-08-07T04:04:36.611Z,96760.41
2022-08-07T04:09:45.079Z,96755.66
2022-08-07T04:14:54.018Z,96753.66
2022-08-07T04:19:59.752Z,96753.09
2022-08-07T04:25:11.889Z,96754.16
2022-08-07T04:30:55.120Z,96758.72
2022-08-07T04:35:59.297Z,96769.03
2022-08-07T04:41:02.581Z,96762.94
2022-08-07T04:46:25.754Z,96764.06
2022-08-07T04:51:49.284Z,96770.59
2022-08-07T04:58:15.001Z,96766.25
2022-08-07T05:02:48.132Z,96766.47
2022-08-07T05:07:58.840Z,96764.59
2022-08-07T05:13:10.004Z,96766.13
2022-08-07T05:18:32.620Z,96762.97
2022-08-07T05:23:38.899Z,96762.31
2022-08-07T05:28:48.748Z,96766.16
2022-08-07T05:34:04.311Z,96772.69
2022-08-07T05:40:06.551Z,96771.03
2022-08-07T05:44:35.817Z,96780.59
2022-08-07T05:49:40.781Z,96783.66
2022-08-07T05:54:55.345Z,96770.97
2022-08-07T06:00:02.543Z,96778.88
2022-08-07T06:05:10.718Z,96779.28
2022-08-07T06:10:15.456Z,96774.13
2022-08-07T06:15:20.829Z,96781.72
2022-08-07T06:20:25.207Z,96774.22
2022-08-07T06:25:34.871Z,96774.22
2022-08-07T06:30:45.427Z,96783.22
2022-08-07T06:36:12.201Z,96774.69
2022-08-07T06:42:00.372Z,96780.19
2022-08-07T06:46:53.809Z,96772.25
2022-08-07T06:52:13.521Z,96775.97
2022-08-07T06:57:16.700Z,96782.69
2022-08-07T07:02:53.304Z,96782.22
2022-08-07T07:08:18.628Z,96797.13
2022-08-07T07:19:55.312Z,96776.22
2022-08-07T07:26:34.133Z,96778.06
2022-08-07T07:31:47.516Z,96780.84
2022-08-07T07:37:22.152Z,96773.97
2022-08-07T07:54:38.780Z,96758.19
2022-08-07T08:00:29.684Z,96766.72
2022-08-07T08:05:54.527Z,96758.34
2022-08-07T08:11:00.734Z,96758.47
2022-08-07T08:16:06.032Z,96752.94
2022-08-07T08:21:55.420Z,96760.84
2022-08-07T08:27:12.937Z,96759.06
2022-08-07T08:32:25.039Z,96758.84
2022-08-07T08:38:01.186Z,96759.28
2022-08-07T08:43:18.811Z,96773.59
2022-08-07T08:48:45.879Z,96754.19
2022-08-07T08:54:05.500Z,96756.34
2022-08-07T08:59:21.651Z,96747.50
2022-08-07T09:04:28.848Z,96762.28
2022-08-07T09:09:36.819Z,96753.91
2022-08-07T09:14:50.697Z,96757.91
2022-08-07T09:20:35.976Z,96756.50
2022-08-07T09:26:05.774Z,96756.78
2022-08-07T09:31:48.486Z,96747.47
2022-08-07T09:37:48.504Z,96745.72
2022-08-07T09:43:21.267Z,96751.69
2022-08-07T09:50:01.197Z,96739.28
2022-08-07T09:56:03.631Z,96735.84
2022-08-07T10:01:55.897Z,96722.69
2022-08-07T10:07:31.694Z,96725.63
2022-08-07T10:12:53.288Z,96723.78
2022-08-07T10:36:18.624Z,96704.94
2022-08-07T10:41:47.325Z,96704.94
2022-08-07T10:47:11.990Z,96703.41
2022-08-07T10:52:31.842Z,96692.88
2022-08-07T10:57:44.429Z,96698.66
2022-08-07T11:03:12.739Z,96688.13
2022-08-07T11:08:16.410Z,96696.28
2022-08-07T11:14:45.308Z,96683.84
2022-08-07T11:19:29.408Z,96687.59
2022-08-07T11:24:52.129Z,96677.59
2022-08-07T11:30:18.770Z,96685.94
2022-08-07T11:35:26.783Z,96678.16
2022-08-07T11:40:35.266Z,96678.94
2022-08-07T11:45:55.020Z,96673.94
2022-08-07T11:51:45.089Z,96660.53
2022-08-07T11:56:48.757Z,96661.09
2022-08-07T12:02:17.678Z,96663.72
2022-08-07T12:07:39.184Z,96661.19
2022-08-07T12:12:52.518Z,96649.88
2022-08-07T12:18:08.168Z,96637.59
2022-08-07T12:24:06.176Z,96643.03
2022-08-07T12:28:49.711Z,96640.53
2022-08-07T12:34:01.716Z,96643.03
2022-08-07T12:39:36.919Z,96642.31
2022-08-07T12:44:35.841Z,96632.19
2022-08-07T12:49:50.938Z,96639.13
2022-08-07T12:55:02.818Z,96624.28
2022-08-07T13:00:16.396Z,96625.66
2022-08-07T13:06:04.686Z,96619.84
2022-08-07T13:11:26.760Z,96617.97
2022-08-07T13:16:46.744Z,96606.41
2022-08-07T13:22:02.087Z,96608.28
2022-08-07T13:27:20.454Z,96598.44
2022-08-07T13:32:37.478Z,96586.94
2022-08-07T13:37:58.729Z,96581.81
2022-08-07T13:43:06.661Z,96585.78
2022-08-07T13:48:27.585Z,96591.28
2022-08-07T13:53:59.786Z,96576.44
2022-08-07T13:59:02.229Z,96580.06
2022-08-07T14:04:10.780Z,96576.34
2022-08-07T14:10:02.375Z,96567.81
2022-08-07T14:15:07.624Z,96581.44
2022-08-07T14:20:40.393Z,96569.53
2022-08-07T14:26:50.606Z,96571.22
2022-08-07T14:32:24.963Z,96564.97
2022-08-07T14:43:58.470Z,96571.13
2022-08-07T14:49:57.630Z,96567.88
2022-08-07T14:55:55.767Z,96562.47
2022-08-07T15:01:42.697Z,96558.25
2022-08-07T15:07:47.485Z,96561.03
2022-08-07T15:13:25.999Z,96558.91
2022-08-07T15:19:07.262Z,96542.94
2022-08-07T15:25:14.183Z,96551.88
2022-08-07T15:30:24.937Z,96550.06
2022-08-07T15:46:57.378Z,96546.69
2022-08-07T15:52:51.764Z,96545.09
2022-08-07T16:03:46.300Z,96554.75
2022-08-07T16:08:45.785Z,96538.38
2022-08-07T16:14:00.238Z,96534.66
2022-08-07T16:19:16.135Z,96539.00
2022-08-07T16:24:34.475Z,96542.47
2022-08-07T16:30:09.779Z,96539.69
2022-08-07T16:35:51.767Z,96537.84
2022-08-07T16:41:01.479Z,96545.25
2022-08-07T16:52:01.614Z,96537.81
2022-08-07T16:58:00.849Z,96537.41
2022-08-07T17:02:56.542Z,96544.72
2022-08-07T17:08:09.252Z,96537.94
2022-08-07T17:13:20.929Z,96548.75
2022-08-07T17:18:30.799Z,96542.19
2022-08-07T17:23:52.695Z,96540.22
2022-08-07T17:28:55.583Z,96541.06
2022-08-07T17:34:33.082Z,96543.75
2022-08-07T17:39:57.607Z,96553.91
2022-08-07T17:45:15.051Z,96549.66
2022-08-07T17:50:19.903Z,96549.50
2022-08-07T17:56:00.426Z,96547.41
2022-08-07T18:00:52.602Z,96547.56
2022-08-07T18:06:33.336Z,96538.88
2022-08-07T18:12:16.379Z,96552.28
2022-08-07T18:18:46.012Z,96551.44
2022-08-07T18:22:58.306Z,96544.47
2022-08-07T18:28:35.269Z,96553.81
2022-08-07T18:33:59.005Z,96570.25
2022-08-07T18:40:07.791Z,96573.16
2022-08-07T18:50:45.902Z,96581.50
2022-08-07T18:56:17.510Z,96597.38
2022-08-07T19:02:32.372Z,96603.22
2022-08-07T19:07:16.168Z,96611.97
2022-08-07T19:12:35.209Z,96626.25
2022-08-07T19:18:07.859Z,96635.19
2022-08-07T19:23:58.135Z,96635.69
2022-08-07T19:31:02.072Z,96635.47
2022-08-07T19:34:48.088Z,96636.75
2022-08-07T19:39:57.830Z,96626.81
2022-08-07T19:46:07.142Z,96638.25
2022-08-07T20:08:21.590Z,96644.97
2022-08-07T20:20:01.927Z,96637.75
2022-08-07T20:26:20.405Z,96635.19
2022-08-07T20:47:58.314Z,96631.06
2022-08-07T20:53:08.766Z,96631.06
2022-08-07T20:58:53.121Z,96623.66
2022-08-07T21:10:46.400Z,96622.03
2022-08-07T21:16:14.783Z,96629.25
2022-08-07T21:27:40.118Z,96630.03
2022-08-07T21:33:45.062Z,96628.28
2022-08-07T21:38:56.299Z,96629.22
2022-08-07T21:44:30.287Z,96627.47
2022-08-07T21:55:30.512Z,96638.97
2022-08-07T22:06:37.842Z,96643.16
2022-08-07T22:12:05.544Z,96648.03
2022-08-07T22:17:12.066Z,96661.66
2022-08-07T22:22:27.909Z,96655.25
2022-08-07T22:28:29.611Z,96647.16
2022-08-07T22:33:06.181Z,96648.31
2022-08-07T22:38:13.294Z,96648.78
2022-08-07T22:43:37.171Z,96646.59
2022-08-07T22:49:02.304Z,96650.59
2022-08-07T22:54:39.716Z,96650.81
2022-08-07T23:00:07.430Z,96658.38
2022-08-07T23:06:09.122Z,96657.47
2022-08-07T23:11:08.563Z,96651.56
2022-08-07T23:16:44.668Z,96659.09
2022-08-07T23:21:53.674Z,96661.09
2022-08-07T23:27:33.810Z,96649.94
2022-08-07T23:34:34.331Z,96649.38
2022-08-07T23:38:36.726Z,96648.53
2022-08-07T23:43:58.602Z,96651.50
2022-08-07T23:49:08.471Z,96646.06
2022-08-07T23:54:19.535Z,96642.53
